createdAt,value
2023-02-17T00:03:47.602Z,22.80
2023-02-17T00:08:46.807Z,21.13
2023-02-17T00:13:56.943Z,20.52
2023-02-17T00:18:58.650Z,21.73
2023-02-17T00:24:11.486Z,21.10
2023-02-17T00:29:08.658Z,21.55
2023-02-17T00:34:09.683Z,20.88
2023-02-17T00:39:17.309Z,20.95
2023-02-17T00:44:23.532Z,21.92
2023-02-17T00:49:27.642Z,20.83
2023-02-17T00:54:24.768Z,22.77
2023-02-17T00:59:23.994Z,21.23
2023-02-17T01:04:21.275Z,20.65
2023-02-17T01:09:19.076Z,21.05
2023-02-17T01:14:24.004Z,19.63
2023-02-17T01:19:21.209Z,20.98
2023-02-17T01:24:21.302Z,20.15
2023-02-17T01:29:21.568Z,19.98
2023-02-17T01:34:22.076Z,19.42
2023-02-17T01:39:22.463Z,20.65
2023-02-17T01:44:23.090Z,17.88
2023-02-17T01:49:33.476Z,19.83
2023-02-17T01:54:41.572Z,19.35
2023-02-17T01:59:42.856Z,17.80
2023-02-17T02:04:45.855Z,18.55
2023-02-17T02:09:49.376Z,16.30
2023-02-17T02:14:52.569Z,16.90
2023-02-17T02:20:37.479Z,17.77
2023-02-17T02:26:12.925Z,16.75
2023-02-17T02:31:29.599Z,17.08
2023-02-17T02:36:29.913Z,16.85
2023-02-17T02:41:31.664Z,15.90
2023-02-17T02:46:28.939Z,16.52
2023-02-17T02:51:40.642Z,15.77
2023-02-17T02:56:49.375Z,15.20
2023-02-17T03:01:53.924Z,15.30
2023-02-17T03:06:56.892Z,15.20
2023-02-17T03:11:57.099Z,15.30
2023-02-17T03:16:56.296Z,15.50
2023-02-17T03:22:04.438Z,15.05
2023-02-17T03:27:10.582Z,21.40
2023-02-17T03:32:08.411Z,20.60
2023-02-17T03:37:12.219Z,21.60
2023-02-17T03:42:09.510Z,21.58
2023-02-17T03:47:11.882Z,21.25
2023-02-17T03:52:16.021Z,22.08
2023-02-17T03:57:17.574Z,19.00
2023-02-17T04:02:19.574Z,18.67
2023-02-17T04:07:17.546Z,17.55
2023-02-17T04:12:14.605Z,15.93
2023-02-17T04:17:15.993Z,15.20
2023-02-17T04:22:18.299Z,14.43
2023-02-17T04:27:23.871Z,15.25
2023-02-17T04:32:25.138Z,15.13
2023-02-17T04:37:24.539Z,16.25
2023-02-17T04:42:25.247Z,17.30
2023-02-17T04:47:22.668Z,16.52
2023-02-17T04:52:23.061Z,18.02
2023-02-17T04:57:23.641Z,17.50
2023-02-17T05:02:30.108Z,33.42
2023-02-17T05:07:50.515Z,19.50
2023-02-17T05:12:54.037Z,20.08
2023-02-17T05:17:57.332Z,21.13
2023-02-17T05:22:56.102Z,20.65
2023-02-17T05:28:00.090Z,25.10
2023-02-17T05:33:38.985Z,25.05
2023-02-17T05:38:58.932Z,29.98
2023-02-17T05:44:15.342Z,27.20
2023-02-17T05:49:16.530Z,29.73
2023-02-17T05:54:14.286Z,29.25
2023-02-17T05:59:18.017Z,33.70
2023-02-17T06:04:25.117Z,30.92
2023-02-17T06:09:39.974Z,34.55
2023-02-17T06:14:54.274Z,30.92
2023-02-17T06:20:04.226Z,30.35
2023-02-17T06:25:36.291Z,29.27
2023-02-17T06:30:44.032Z,28.83
2023-02-17T06:36:49.292Z,31.98
2023-02-17T06:41:59.239Z,30.40
2023-02-17T06:52:40.367Z,31.45
2023-02-17T06:57:47.513Z,34.50
2023-02-17T07:02:59.326Z,35.70
2023-02-17T07:08:06.591Z,33.40
2023-02-17T07:13:16.468Z,34.47
2023-02-17T07:23:36.089Z,33.38
2023-02-17T07:28:49.533Z,35.35
2023-02-17T07:33:54.790Z,34.22
2023-02-17T07:38:56.479Z,35.75
2023-02-17T07:44:11.483Z,34.88
2023-02-17T07:49:40.871Z,32.30
2023-02-17T07:54:45.165Z,33.33
2023-02-17T08:00:24.244Z,33.13
2023-02-17T08:05:51.826Z,35.92
2023-02-17T08:11:23.242Z,36.70
2023-02-17T08:16:29.540Z,34.83
2023-02-17T08:21:41.539Z,33.75
2023-02-17T08:26:57.932Z,34.45
2023-02-17T08:32:02.878Z,32.70
2023-02-17T08:37:15.326Z,33.00
2023-02-17T08:42:50.341Z,33.80
2023-02-17T08:47:50.934Z,31.15
2023-02-17T08:52:54.175Z,31.17
2023-02-17T08:58:22.661Z,32.45
2023-02-17T09:03:20.289Z,31.83
2023-02-17T09:08:35.174Z,32.22
2023-02-17T09:13:52.964Z,34.93
2023-02-17T09:18:57.487Z,32.03
2023-02-17T09:24:42.556Z,32.35
2023-02-17T09:30:02.337Z,29.35
2023-02-17T09:59:43.771Z,27.58
2023-02-17T10:05:52.319Z,28.48
2023-02-17T10:11:32.634Z,27.77
2023-02-17T10:23:24.011Z,27.85
2023-02-17T10:28:46.202Z,26.55
2023-02-17T10:34:20.453Z,23.13
2023-02-17T10:39:49.427Z,28.85
2023-02-17T10:45:11.389Z,29.25
2023-02-17T10:50:35.270Z,28.73
2023-02-17T10:55:52.301Z,28.88
2023-02-17T11:01:05.748Z,29.25
2023-02-17T11:06:33.346Z,27.33
2023-02-17T11:12:10.653Z,24.33
2023-02-17T11:36:55.561Z,24.23
2023-02-17T11:55:59.472Z,23.13
2023-02-17T12:01:19.991Z,24.20
2023-02-17T12:06:39.216Z,26.20
2023-02-17T12:23:12.194Z,19.55
2023-02-17T12:28:43.914Z,18.02
2023-02-17T12:33:57.312Z,17.50
2023-02-17T12:39:11.846Z,18.88
2023-02-17T12:49:46.196Z,18.70
2023-02-17T12:55:03.088Z,18.42
2023-02-17T13:00:14.936Z,17.27
2023-02-17T13:05:24.295Z,18.17
2023-02-17T13:10:57.937Z,19.10
2023-02-17T13:16:16.125Z,17.65
2023-02-17T13:21:44.840Z,18.45
2023-02-17T13:26:56.859Z,16.40
2023-02-17T13:32:10.086Z,16.95
2023-02-17T13:37:38.662Z,15.82
2023-02-17T13:42:55.542Z,13.00
2023-02-17T13:48:01.652Z,15.32
2023-02-17T13:53:07.399Z,14.95
2023-02-17T13:58:44.318Z,15.48
2023-02-17T14:03:58.689Z,12.65
2023-02-17T14:09:03.696Z,13.82
2023-02-17T14:14:07.595Z,12.90
2023-02-17T14:19:14.628Z,14.32
2023-02-17T14:24:48.943Z,14.75
2023-02-17T14:30:09.294Z,14.48
2023-02-17T14:42:34.656Z,14.85
2023-02-17T14:47:35.183Z,15.18
2023-02-17T14:52:36.652Z,13.68
2023-02-17T14:57:45.801Z,15.02
2023-02-17T15:08:33.462Z,15.05
2023-02-17T15:13:54.337Z,12.63
2023-02-17T15:19:34.893Z,11.82
2023-02-17T15:24:52.309Z,11.43
2023-02-17T15:30:22.868Z,9.73
2023-02-17T15:35:35.349Z,10.55
2023-02-17T15:41:16.502Z,10.13
2023-02-17T15:46:22.476Z,10.02
2023-02-17T15:51:24.316Z,9.82
2023-02-17T15:56:48.032Z,10.43
2023-02-17T16:02:10.195Z,10.73
2023-02-17T16:07:24.230Z,10.88
2023-02-17T16:12:30.625Z,9.93
2023-02-17T16:17:41.799Z,11.40
2023-02-17T16:22:50.358Z,11.90
2023-02-17T16:28:10.881Z,11.10
2023-02-17T16:33:14.007Z,15.73
2023-02-17T16:38:55.576Z,15.73
2023-02-17T16:44:25.415Z,16.90
2023-02-17T16:49:51.718Z,17.90
2023-02-17T16:54:51.956Z,17.50
2023-02-17T17:05:31.409Z,15.93
2023-02-17T17:10:54.359Z,16.30
2023-02-17T17:16:19.419Z,15.40
2023-02-17T17:26:30.710Z,15.25
2023-02-17T17:31:37.256Z,15.95
2023-02-17T17:36:41.297Z,18.38
2023-02-17T17:42:06.050Z,15.63
2023-02-17T17:48:10.897Z,16.85
2023-02-17T17:53:29.255Z,13.88
2023-02-17T17:58:47.242Z,14.63
2023-02-17T18:04:11.231Z,15.40
2023-02-17T18:09:31.743Z,14.82
2023-02-17T18:14:34.181Z,14.57
2023-02-17T18:20:12.594Z,15.10
2023-02-17T18:25:15.714Z,15.95
2023-02-17T18:30:43.747Z,15.68
2023-02-17T18:35:57.824Z,15.45
2023-02-17T18:41:20.800Z,16.52
2023-02-17T18:46:30.056Z,16.60
2023-02-17T18:51:55.423Z,16.63
2023-02-17T19:03:09.325Z,16.05
2023-02-17T19:08:39.953Z,16.48
2023-02-17T19:14:12.935Z,20.70
2023-02-17T19:19:42.598Z,18.55
2023-02-17T19:24:54.610Z,17.13
2023-02-17T19:30:33.559Z,16.35
2023-02-17T19:35:43.922Z,17.42
2023-02-17T19:48:09.199Z,16.20
2023-02-17T19:59:30.449Z,15.40
2023-02-17T20:10:31.926Z,14.75
2023-02-17T20:22:42.053Z,15.10
2023-02-17T20:29:18.411Z,17.85
2023-02-17T20:35:08.763Z,15.23
2023-02-17T20:41:18.940Z,13.88
2023-02-17T20:46:36.538Z,14.02
2023-02-17T20:57:29.591Z,13.73
2023-02-17T21:03:12.848Z,13.27
2023-02-17T21:08:47.928Z,16.23
2023-02-17T21:13:51.035Z,13.00
2023-02-17T21:18:53.149Z,14.93
2023-02-17T21:23:53.683Z,13.55
2023-02-17T21:28:54.791Z,11.38
2023-02-17T21:34:23.651Z,13.23
2023-02-17T21:39:43.972Z,11.63
2023-02-17T21:45:04.473Z,11.30
2023-02-17T21:50:22.407Z,11.18
2023-02-17T21:55:37.149Z,11.73
2023-02-17T22:00:42.153Z,10.90
2023-02-17T22:05:54.071Z,11.20
2023-02-17T22:10:58.046Z,12.23
2023-02-17T22:16:00.813Z,11.05
2023-02-17T22:21:11.998Z,10.38
2023-02-17T22:26:25.121Z,11.80
2023-02-17T22:31:29.678Z,10.25
2023-02-17T22:36:30.217Z,10.95
2023-02-17T22:41:28.506Z,10.82
2023-02-17T22:46:26.694Z,9.93
2023-02-17T22:51:35.476Z,9.68
2023-02-17T22:56:40.217Z,9.30
2023-02-17T23:01:51.994Z,10.68
2023-02-17T23:06:49.476Z,9.55
2023-02-17T23:11:49.864Z,11.65
2023-02-17T23:17:01.942Z,10.65
2023-02-17T23:22:16.920Z,11.25
2023-02-17T23:27:16.021Z,10.60
2023-02-17T23:32:18.839Z,13.75
2023-02-17T23:37:24.976Z,11.55
2023-02-17T23:42:27.298Z,12.07
2023-02-17T23:47:31.419Z,12.57
2023-02-17T23:52:47.592Z,11.52
2023-02-17T23:57:52.451Z,11.65
